| Date | Time | Temp. (oF) | Dew Point (oF) | Rel. Hum. (%) | Press. (in.) | Wind Dir. | Wind Speed (mph) | Hourly Rainfall (in.) |
|
|---|---|---|---|---|---|---|---|---|---|
| 1 | 02/03 | 00:00 | 36 | 25 | 66 | 30.33 | N | 5 | 0.00 |
| 2 | 02/02 | 23:00 | 37 | 25 | 62 | 30.30 | N | 8 | 0.00 |
| 3 | 02/02 | 22:00 | 38 | 27 | 66 | 30.30 | N | 7 | 0.00 |
| 4 | 02/02 | 21:00 | 39 | 29 | 69 | 30.28 | N | 10 | 0.00 |
| 5 | 02/02 | 20:00 | 39 | 30 | 72 | 30.25 | W | 8 | 0.00 |
| 6 | 02/02 | 19:00 | 38 | 32 | 80 | 30.23 | W | 14 | 0.00 |
| 7 | 02/02 | 18:00 | 39 | 31 | 75 | 30.19 | N | 19 | 0.00 |
| 8 | 02/02 | 17:00 | 41 | 31 | 69 | 30.16 | N | 9 | 0.00 |
| 9 | 02/02 | 16:00 | 42 | 32 | 70 | 30.12 | NNE | 13 | 0.00 |
| 10 | 02/02 | 15:00 | 43 | 34 | 71 | 30.10 | NW | 8 | 0.00 |
| 11 | 02/02 | 14:00 | 44 | 36 | 76 | 30.05 | N | 7 | 0.00 |
| 12 | 02/02 | 13:00 | 45 | 35 | 69 | 30.05 | N | 9 | 0.00 |
| 13 | 02/02 | 12:00 | 42 | 33 | 73 | 30.06 | NNE | 7 | 0.00 |
| 14 | 02/02 | 11:00 | 42 | 37 | 84 | 30.09 | E | 3 | 0.00 |
| 15 | 02/02 | 10:00 | 41 | 37 | 87 | 30.07 | ESE | 4 | 0.00 |
| 16 | 02/02 | 09:00 | 39 | 37 | 95 | 30.05 | NE | 3 | 0.00 |
| 17 | 02/02 | 08:00 | 36 | 36 | 100 | 30.06 | NE | 2 | 0.00 |
| 18 | 02/02 | 07:00 | 37 | 36 | 100 | 30.05 | ENE | 3 | 0.00 |
| 19 | 02/02 | 06:00 | 38 | 37 | 100 | 30.03 | NE | 1 | 0.00 |
| 20 | 02/02 | 05:00 | 36 | 36 | 100 | 30.03 | ENE | 2 | 0.00 |
| 21 | 02/02 | 04:00 | 37 | 36 | 100 | 30.00 | SSE | 2 | 0.00 |
| 22 | 02/02 | 03:00 | 39 | 39 | 100 | 29.99 | NNE | 4 | 0.00 |
| 23 | 02/02 | 02:00 | 41 | 40 | 97 | 30.02 | NNE | 2 | 0.00 |
| 24 | 02/02 | 01:00 | 41 | 39 | 95 | 30.02 | SSE | 2 | 0.00 |